Time;durP1;ratioP1;P1;durP2;ratioP2;P2;SDS_P1;SDS_P2;PMS_P1;PMS_P2;Temp;Humidity;BMP_temperature;BMP_pressure;BME280_temperature;BME280_humidity;BME280_pressure;Samples;Min_cycle;Max_cycle;Signal;HPM_P1;HPM_P2
2024/01/14 00:00:44;;;;;;;11.40;1.08;;;;;;;-146.25;100.00;52729.13;2023836;29;40596;-66
2024/01/14 00:01:46;;;;;;;16.20;1.27;;;;;;;-146.25;100.00;52692.63;2024437;29;20942;-66
2024/01/14 00:02:48;;;;;;;14.60;1.63;;;;;;;-146.25;100.00;52652.06;2024728;29;20910;-67
2024/01/14 00:03:49;;;;;;;15.15;1.00;;;;;;;-146.25;100.00;52731.16;2024188;29;35237;-65
2024/01/14 00:04:54;;;;;;;11.70;1.38;;;;;;;-146.25;100.00;52698.72;2032689;29;20962;-65
2024/01/14 00:05:57;;;;;;;12.32;1.20;;;;;;;-146.25;100.00;52684.50;2031927;29;36007;-66
2024/01/14 00:06:59;;;;;;;14.15;1.35;;;;;;;-146.25;100.00;52710.88;2032497;29;30454;-65
2024/01/14 00:08:01;;;;;;;9.18;0.80;;;;;;;-146.25;100.00;52696.69;2033032;29;20036;-67
2024/01/14 00:09:02;;;;;;;11.73;1.38;;;;;;;-146.25;100.00;52706.81;2032562;29;33686;-66
2024/01/14 00:10:08;;;;;;;13.73;0.98;;;;;;;-146.25;100.00;52694.66;2024479;29;20080;-65
2024/01/14 00:11:12;;;;;;;13.50;1.40;;;;;;;-146.25;100.00;52688.56;2024392;29;35089;-66
2024/01/14 00:12:13;;;;;;;10.02;1.35;;;;;;;-146.25;100.00;52680.47;2032491;29;31005;-65
2024/01/14 00:13:15;;;;;;;19.88;0.90;;;;;;;-146.25;100.00;52696.69;2031752;29;31344;-66
2024/01/14 00:14:17;;;;;;;15.63;1.20;;;;;;;-146.25;100.00;52692.63;2031849;29;37521;-66
2024/01/14 00:15:19;;;;;;;13.73;1.13;;;;;;;-146.25;100.00;52706.81;2032555;29;35771;-66
2024/01/14 00:16:21;;;;;;;22.08;1.50;;;;;;;-146.25;100.00;52712.91;2032890;29;20094;-66
2024/01/14 00:17:23;;;;;;;16.50;1.30;;;;;;;-146.25;100.00;52684.50;2023938;29;30509;-66
2024/01/14 00:18:27;;;;;;;17.73;1.10;;;;;;;-146.25;100.00;52674.38;2024353;29;32097;-66
2024/01/14 00:19:30;;;;;;;14.30;1.55;;;;;;;-146.25;100.00;52696.69;2032053;29;36271;-65
2024/01/14 00:20:31;;;;;;;16.33;1.95;;;;;;;-146.25;100.00;52700.72;2032316;29;32228;-66
2024/01/14 00:21:36;;;;;;;15.00;1.33;;;;;;;-146.25;100.00;52698.72;2032324;29;34015;-64
2024/01/14 00:22:38;;;;;;;10.32;1.10;;;;;;;-146.25;100.00;52731.16;2033069;29;20052;-65
2024/01/14 00:23:40;;;;;;;13.05;1.50;;;;;;;-146.25;100.00;52656.13;2031640;29;35547;-66
2024/01/14 00:24:43;;;;;;;18.73;1.10;;;;;;;-146.25;100.00;52761.56;2032012;29;32346;-65
2024/01/14 00:25:44;;;;;;;15.13;1.08;;;;;;;-146.25;100.00;52729.13;2032101;29;32923;-66
2024/01/14 00:26:46;;;;;;;8.25;0.85;;;;;;;-146.25;100.00;52710.88;2032468;29;34001;-67
2024/01/14 00:27:49;;;;;;;16.67;1.48;;;;;;;-146.25;100.00;52690.59;2032863;29;20857;-67
2024/01/14 00:28:57;;;;;;;9.52;0.90;;;;;;;-146.25;100.00;52692.63;2031758;29;24262;-67
2024/01/14 00:30:00;;;;;;;8.88;0.80;;;;;;;-146.25;100.00;52680.47;2031559;29;33577;-66
2024/01/14 00:31:02;;;;;;;11.15;0.60;;;;;;;-146.25;100.00;52686.53;2032009;29;20041;-67
2024/01/14 00:32:04;;;;;;;8.80;0.50;;;;;;;-146.25;100.00;52692.63;2031860;29;28426;-65
2024/01/14 00:33:06;;;;;;;4.03;0.30;;;;;;;-146.25;100.00;52680.47;2031827;29;33058;-66
2024/01/14 00:34:08;;;;;;;8.32;0.35;;;;;;;-146.25;100.00;52662.22;2032923;29;20159;-66
2024/01/14 00:35:12;;;;;;;8.18;0.35;;;;;;;-146.25;100.00;52721.00;2031903;29;37585;-67
2024/01/14 00:36:14;;;;;;;3.42;0.28;;;;;;;-146.25;100.00;52710.88;2032235;29;35768;-67
2024/01/14 00:37:16;;;;;;;5.25;0.30;;;;;;;-146.25;100.00;52698.72;2033044;29;20049;-66
2024/01/14 00:38:18;;;;;;;3.15;0.10;;;;;;;-146.25;100.00;52686.53;2025840;29;34570;-64
2024/01/14 00:39:20;;;;;;;3.78;0.20;;;;;;;-146.25;100.00;52682.47;2031853;29;22005;-65
2024/01/14 00:40:22;;;;;;;6.82;0.45;;;;;;;-146.25;100.00;52733.19;2040515;28;20052;-65
2024/01/14 00:41:24;;;;;;;5.00;0.30;;;;;;;-146.25;100.00;52676.41;2040344;29;30788;-67
2024/01/14 00:42:26;;;;;;;4.55;0.40;;;;;;;-146.25;100.00;52712.91;2040423;29;20148;-66
2024/01/14 00:43:28;;;;;;;3.08;0.30;;;;;;;-146.25;100.00;52680.47;2040778;29;20091;-66
2024/01/14 00:44:29;;;;;;;5.32;0.20;;;;;;;-146.25;100.00;52680.47;2039874;29;35709;-67
2024/01/14 00:45:31;;;;;;;3.45;0.20;;;;;;;-146.25;100.00;52688.56;2039456;28;34020;-67
2024/01/14 00:46:34;;;;;;;5.30;0.40;;;;;;;-146.25;100.00;52672.34;2040256;29;30711;-63
2024/01/14 00:47:36;;;;;;;6.82;0.50;;;;;;;-146.25;100.00;52721.00;2039888;29;35821;-67
2024/01/14 00:48:38;;;;;;;10.07;0.52;;;;;;;-146.25;100.00;52694.66;2039927;29;32990;-65
2024/01/14 00:49:39;;;;;;;6.57;0.43;;;;;;;-146.25;100.00;52694.66;2040087;29;32980;-66
2024/01/14 00:50:41;;;;;;;8.73;0.57;;;;;;;-146.25;100.00;52757.50;2039846;29;36436;-67
2024/01/14 00:51:43;;;;;;;7.55;0.40;;;;;;;-146.25;100.00;52692.63;2040208;29;34226;-68
2024/01/14 00:52:45;;;;;;;12.27;0.82;;;;;;;-146.25;100.00;52674.38;2040420;29;21024;-65
2024/01/14 00:53:47;;;;;;;5.85;0.30;;;;;;;-146.25;100.00;52704.78;2040113;29;37222;-66
2024/01/14 00:54:49;;;;;;;10.43;0.98;;;;;;;-146.25;100.00;52716.97;2040180;29;28474;-65
2024/01/14 00:55:51;;;;;;;12.75;0.95;;;;;;;-146.25;100.00;52680.47;2039956;29;33019;-66
2024/01/14 00:56:53;;;;;;;13.43;0.80;;;;;;;-146.25;100.00;52733.19;2040044;29;37409;-66
2024/01/14 00:57:55;;;;;;;13.05;1.00;;;;;;;-146.25;100.00;52710.88;2033824;29;20084;-66
2024/01/14 00:58:56;;;;;;;10.65;0.98;;;;;;;-146.25;100.00;52737.22;2031805;29;33792;-66
2024/01/14 01:00:01;;;;;;;9.75;0.80;;;;;;;-146.25;100.00;52668.28;2032700;29;20037;-66
2024/01/14 01:01:03;;;;;;;8.98;0.82;;;;;;;-146.25;100.00;52680.47;2032713;29;20143;-66
2024/01/14 01:02:04;;;;;;;11.10;0.80;;;;;;;-146.25;100.00;52718.97;2031874;29;37241;-65
2024/01/14 01:03:06;;;;;;;16.20;1.30;;;;;;;-146.25;100.00;52660.19;2032233;29;20093;-66
2024/01/14 01:04:08;;;;;;;16.42;1.08;;;;;;;-146.25;100.00;52692.63;2031470;29;34846;-66
2024/01/14 01:05:10;;;;;;;15.68;1.20;;;;;;;-146.25;100.00;52702.75;2031331;29;35960;-65
2024/01/14 01:06:12;;;;;;;10.10;0.70;;;;;;;-146.25;100.00;52692.63;2031562;29;20052;-66
2024/01/14 01:07:16;;;;;;;16.10;1.00;;;;;;;-146.25;100.00;52686.53;2031959;29;37934;-65
2024/01/14 01:08:18;;;;;;;11.90;0.80;;;;;;;-146.25;100.00;52712.91;2032175;29;30409;-64
2024/01/14 01:09:21;;;;;;;12.70;1.02;;;;;;;-146.25;100.00;52733.19;2031955;29;32508;-65
2024/01/14 01:10:23;;;;;;;13.73;1.10;;;;;;;-146.25;100.00;52702.75;2032669;29;20903;-66
2024/01/14 01:11:26;;;;;;;11.93;1.23;;;;;;;-146.25;100.00;52698.72;2031710;29;38002;-66
2024/01/14 01:12:27;;;;;;;10.52;0.80;;;;;;;-146.25;100.00;52662.22;2032132;29;34462;-66
2024/01/14 01:13:29;;;;;;;12.77;0.68;;;;;;;-146.25;100.00;52686.53;2032701;29;21255;-65
2024/01/14 01:14:31;;;;;;;12.93;0.80;;;;;;;-146.25;100.00;52688.56;2031714;29;35565;-65
2024/01/14 01:15:35;;;;;;;15.25;1.02;;;;;;;-146.25;100.00;52704.78;2031322;29;28819;-67
2024/01/14 01:16:38;;;;;;;14.40;1.10;;;;;;;-146.25;100.00;52712.91;2032056;29;20767;-66
2024/01/14 01:17:40;;;;;;;8.38;0.90;;;;;;;-146.25;100.00;52672.34;2031858;29;35952;-64
2024/01/14 01:18:44;;;;;;;9.98;0.50;;;;;;;-146.25;100.00;52721.00;2031651;29;29007;-66
2024/01/14 01:19:46;;;;;;;12.38;0.73;;;;;;;-146.25;100.00;52700.72;2032045;29;31002;-66
2024/01/14 01:20:51;;;;;;;11.68;0.75;;;;;;;-146.25;100.00;52696.69;2031825;29;36658;-65
2024/01/14 01:21:55;;;;;;;7.88;0.45;;;;;;;-146.25;100.00;52680.47;2032202;29;31538;-66
2024/01/14 01:22:57;;;;;;;6.60;0.65;;;;;;;-146.25;100.00;52686.53;2032108;29;21060;-66
2024/01/14 01:24:00;;;;;;;12.02;0.75;;;;;;;-146.25;100.00;52678.44;2032679;29;20044;-65
2024/01/14 01:25:02;;;;;;;6.60;0.50;;;;;;;-146.25;100.00;52733.19;2031874;29;33807;-66
2024/01/14 01:26:04;;;;;;;7.68;0.40;;;;;;;-146.25;100.00;52684.50;2032162;29;31554;-66
2024/01/14 01:27:06;;;;;;;6.38;0.32;;;;;;;-146.25;100.00;52658.16;2032519;29;20107;-65
2024/01/14 01:28:09;;;;;;;7.70;0.50;;;;;;;-146.25;100.00;52696.69;2032699;29;20036;-66
2024/01/14 01:29:11;;;;;;;9.30;0.47;;;;;;;-146.25;100.00;52696.69;2031768;29;36710;-64
2024/01/14 01:30:13;;;;;;;8.82;0.52;;;;;;;-146.25;100.00;52712.91;2031893;29;32281;-66
2024/01/14 01:31:14;;;;;;;10.02;0.43;;;;;;;-146.25;100.00;52700.72;2032503;29;20044;-66
2024/01/14 01:32:24;;;;;;;5.47;0.30;;;;;;;-146.25;100.00;52688.56;2031323;29;36097;-66
2024/01/14 01:33:26;;;;;;;8.60;0.50;;;;;;;-146.25;100.00;52672.34;2031978;29;23614;-67
2024/01/14 01:34:28;;;;;;;6.43;0.30;;;;;;;-146.25;100.00;52684.50;2031598;29;33462;-66
2024/01/14 01:35:29;;;;;;;5.03;0.60;;;;;;;-146.25;100.00;52688.56;2031656;29;37425;-66
2024/01/14 01:36:31;;;;;;;8.50;0.50;;;;;;;-146.25;100.00;52684.50;2032410;29;20048;-66
2024/01/14 01:37:36;;;;;;;8.88;0.60;;;;;;;-146.25;100.00;52680.47;2031976;29;33477;-63
2024/01/14 01:38:38;;;;;;;8.98;0.52;;;;;;;-146.25;100.00;52656.13;2031687;29;31405;-66
2024/01/14 01:39:40;;;;;;;8.75;0.47;;;;;;;-146.25;100.00;52680.47;2032550;29;20175;-65
2024/01/14 01:40:42;;;;;;;6.55;0.50;;;;;;;-146.25;100.00;52698.72;2032369;29;20076;-65
2024/01/14 01:41:43;;;;;;;7.47;0.60;;;;;;;-146.25;100.00;52674.38;2031215;29;32923;-65
2024/01/14 01:42:49;;;;;;;9.20;0.50;;;;;;;-146.25;100.00;52668.28;2032016;29;20029;-66
2024/01/14 01:43:54;;;;;;;12.43;0.60;;;;;;;-146.25;100.00;52684.50;2032347;29;37152;-66
2024/01/14 01:44:55;;;;;;;7.25;0.52;;;;;;;-146.25;100.00;52712.91;2031097;29;35954;-66
2024/01/14 01:45:57;;;;;;;6.25;0.40;;;;;;;-146.25;100.00;52729.13;2032199;29;31945;-66
2024/01/14 01:47:00;;;;;;;9.23;0.60;;;;;;;-146.25;100.00;52674.38;2023181;29;39195;-64
2024/01/14 01:48:04;;;;;;;6.40;0.50;;;;;;;-146.25;100.00;52680.47;2023130;29;36095;-65
2024/01/14 01:49:07;;;;;;;9.85;0.45;;;;;;;-146.25;100.00;52690.59;2031717;29;20083;-65
2024/01/14 01:50:09;;;;;;;13.43;0.70;;;;;;;-146.25;100.00;52700.72;2031058;29;34248;-65
2024/01/14 01:51:12;;;;;;;6.15;0.40;;;;;;;-146.25;100.00;52704.78;2031788;29;33299;-66
2024/01/14 01:52:14;;;;;;;4.85;0.40;;;;;;;-146.25;100.00;52704.78;2031655;29;34214;-64
2024/01/14 01:53:16;;;;;;;7.43;0.30;;;;;;;-146.25;100.00;52718.97;2031115;29;36990;-65
2024/01/14 01:54:22;;;;;;;13.95;0.40;;;;;;;-146.25;100.00;52727.09;2031194;29;34580;-64
2024/01/14 01:55:24;;;;;;;9.30;0.30;;;;;;;-146.25;100.00;52704.78;2031330;29;33974;-65
2024/01/14 01:56:27;;;;;;;8.45;0.50;;;;;;;-146.25;100.00;52714.94;2030923;29;33071;-65
2024/01/14 01:57:29;;;;;;;9.48;0.52;;;;;;;-146.25;100.00;52684.50;2032464;29;20044;-66
2024/01/14 01:58:31;;;;;;;7.85;0.50;;;;;;;-146.25;100.00;52716.97;2031433;29;37916;-66
2024/01/14 01:59:34;;;;;;;8.20;0.50;;;;;;;-146.25;100.00;52704.78;2031267;29;34058;-62
2024/01/14 02:00:38;;;;;;;11.32;0.57;;;;;;;-146.25;100.00;52712.91;2031521;29;20137;-65
2024/01/14 02:01:43;;;;;;;9.25;0.35;;;;;;;-146.25;100.00;52672.34;2032328;29;20039;-65
2024/01/14 02:02:48;;;;;;;8.20;0.38;;;;;;;-146.25;100.00;52696.69;2031377;29;37910;-65
2024/01/14 02:03:54;;;;;;;9.05;0.45;;;;;;;-146.25;100.00;52674.38;2031946;29;20819;-65
2024/01/14 02:04:56;;;;;;;12.07;0.55;;;;;;;-146.25;100.00;52696.69;2031751;29;21546;-64
2024/01/14 02:05:59;;;;;;;9.38;0.40;;;;;;;-146.25;100.00;52686.53;2031310;29;20055;-64
2024/01/14 02:07:01;;;;;;;7.90;0.32;;;;;;;-146.25;100.00;52674.38;2031323;29;34099;-64
2024/01/14 02:08:04;;;;;;;12.82;0.75;;;;;;;-146.25;100.00;52694.66;2031929;29;32450;-62
2024/01/14 02:09:07;;;;;;;12.57;0.45;;;;;;;-146.25;100.00;52686.53;2031442;29;20916;-64
2024/01/14 02:10:11;;;;;;;13.50;0.80;;;;;;;-146.25;100.00;52696.69;2031144;29;32342;-65
2024/01/14 02:11:13;;;;;;;7.85;0.60;;;;;;;-146.25;100.00;52712.91;2031308;29;37142;-66
2024/01/14 02:12:15;;;;;;;13.60;0.68;;;;;;;-146.25;100.00;52686.53;2031811;29;30491;-66
2024/01/14 02:13:17;;;;;;;9.18;0.47;;;;;;;-146.25;100.00;52702.75;2032083;29;20099;-65
2024/01/14 02:14:19;;;;;;;10.27;0.40;;;;;;;-146.25;100.00;52688.56;2031020;29;37392;-63
2024/01/14 02:15:21;;;;;;;9.38;0.45;;;;;;;-146.25;100.00;52676.41;2030965;29;30881;-65
2024/01/14 02:16:23;;;;;;;6.60;0.38;;;;;;;-146.25;100.00;52712.91;2031584;29;32166;-65
2024/01/14 02:17:24;;;;;;;12.38;0.75;;;;;;;-146.25;100.00;52706.81;2032143;29;20465;-65
2024/01/14 02:18:26;;;;;;;9.60;0.60;;;;;;;-146.25;100.00;52704.78;2031983;29;20043;-65
2024/01/14 02:19:28;;;;;;;13.85;0.40;;;;;;;-146.25;100.00;52688.56;2031209;29;37908;-66
2024/01/14 02:20:30;;;;;;;13.65;0.50;;;;;;;-146.25;100.00;52704.78;2030840;29;32837;-64
2024/01/14 02:21:54;;;;;;;15.18;0.63;;;;;;;-146.25;100.00;52704.78;2031293;29;20107;-64
2024/01/14 02:22:56;;;;;;;8.82;0.40;;;;;;;-146.25;100.00;52700.72;2031802;29;32106;-65
2024/01/14 02:24:27;;;;;;;12.68;0.55;;;;;;;-146.25;100.00;52686.53;2031806;29;20060;-64
2024/01/14 02:25:31;;;;;;;10.85;0.70;;;;;;;-146.25;100.00;52716.97;2031710;29;20074;-65
2024/01/14 02:26:33;;;;;;;13.57;0.50;;;;;;;-146.25;100.00;52672.34;2031858;29;20091;-65
2024/01/14 02:27:35;;;;;;;7.10;0.40;;;;;;;-146.25;100.00;52660.19;2031207;29;37168;-65
2024/01/14 02:28:37;;;;;;;13.90;0.60;;;;;;;-146.25;100.00;52656.13;2031639;29;34932;-65
2024/01/14 02:29:40;;;;;;;8.68;0.43;;;;;;;-146.25;100.00;52700.72;2031681;29;33511;-64
2024/01/14 02:30:43;;;;;;;19.17;0.60;;;;;;;-146.25;100.00;52680.47;2031008;29;34147;-65
2024/01/14 02:31:46;;;;;;;11.18;0.40;;;;;;;-146.25;100.00;52729.13;2030804;29;35204;-63
2024/01/14 02:32:48;;;;;;;9.10;0.75;;;;;;;-146.25;100.00;52710.88;2031680;29;33764;-65
2024/01/14 02:33:50;;;;;;;12.15;0.80;;;;;;;-146.25;100.00;52712.91;2031702;29;20835;-65
2024/01/14 02:34:52;;;;;;;16.23;0.63;;;;;;;-146.25;100.00;52712.91;2031444;29;33190;-65
2024/01/14 02:35:54;;;;;;;11.65;0.50;;;;;;;-146.25;100.00;52698.72;2031107;29;33388;-65
2024/01/14 02:36:56;;;;;;;14.68;0.70;;;;;;;-146.25;100.00;52714.94;2032451;29;20049;-65
2024/01/14 02:37:58;;;;;;;16.33;1.08;;;;;;;-146.25;100.00;52684.50;2031346;29;22711;-63
2024/01/14 02:39:02;;;;;;;12.90;0.68;;;;;;;-146.25;100.00;52692.63;2032127;29;37328;-63
2024/01/14 02:40:04;;;;;;;10.93;0.60;;;;;;;-146.25;100.00;52692.63;2031849;29;20037;-62
2024/01/14 02:41:06;;;;;;;11.35;0.55;;;;;;;-146.25;100.00;52727.09;2032209;29;20043;-64
2024/01/14 02:42:09;;;;;;;14.35;0.90;;;;;;;-146.25;100.00;52718.97;2031108;29;33490;-65
2024/01/14 02:43:11;;;;;;;14.07;0.52;;;;;;;-146.25;100.00;52672.34;2031659;29;33329;-65
2024/01/14 02:44:13;;;;;;;13.43;0.63;;;;;;;-146.25;100.00;52692.63;2031191;29;36123;-65
2024/01/14 02:45:14;;;;;;;11.27;0.60;;;;;;;-146.25;100.00;52686.53;2031920;29;20139;-65
2024/01/14 02:46:16;;;;;;;10.95;0.63;;;;;;;-146.25;100.00;52710.88;2031889;29;20053;-65
2024/01/14 02:47:18;;;;;;;12.15;0.70;;;;;;;-146.25;100.00;52690.59;2031681;29;34177;-64
2024/01/14 02:48:20;;;;;;;12.38;0.70;;;;;;;-146.25;100.00;52702.75;2022585;29;35417;-64
2024/01/14 02:49:24;;;;;;;12.82;0.90;;;;;;;-146.25;100.00;52712.91;2023625;29;20913;-66
2024/01/14 02:50:28;;;;;;;10.63;0.60;;;;;;;-146.25;100.00;52696.69;2031006;29;37652;-64
2024/01/14 02:51:30;;;;;;;12.73;0.60;;;;;;;-146.25;100.00;52716.97;2031654;29;33389;-64
2024/01/14 02:52:32;;;;;;;11.38;0.60;;;;;;;-146.25;100.00;52678.44;2031494;29;31212;-65
2024/01/14 02:53:34;;;;;;;13.40;0.80;;;;;;;-146.25;100.00;52692.63;2032321;29;20074;-65
2024/01/14 02:54:37;;;;;;;12.20;0.68;;;;;;;-146.25;100.00;52725.06;2031278;29;36497;-65
2024/01/14 02:55:39;;;;;;;9.23;0.68;;;;;;;-146.25;100.00;52680.47;2031527;29;32652;-64
2024/01/14 02:56:41;;;;;;;13.25;0.82;;;;;;;-146.25;100.00;52700.72;2030993;29;33432;-65
2024/01/14 02:57:43;;;;;;;13.43;0.75;;;;;;;-146.25;100.00;52672.34;2031042;29;21107;-65
2024/01/14 02:58:45;;;;;;;10.23;0.50;;;;;;;-146.25;100.00;52692.63;2030679;29;34685;-65
2024/01/14 02:59:47;;;;;;;23.00;1.05;;;;;;;-146.25;100.00;52656.13;2031946;29;20123;-65
2024/01/14 03:00:48;;;;;;;10.50;0.50;;;;;;;-146.25;100.00;52692.63;2030271;29;31642;-65
2024/01/14 03:01:50;;;;;;;15.43;0.98;;;;;;;-146.25;100.00;52704.78;2032127;29;20037;-65
2024/01/14 03:02:52;;;;;;;10.25;0.80;;;;;;;-146.25;100.00;52694.66;2030942;29;38169;-65
2024/01/14 03:03:56;;;;;;;12.88;0.68;;;;;;;-146.25;100.00;52694.66;2031693;29;31603;-64
2024/01/14 03:04:59;;;;;;;13.00;0.60;;;;;;;-146.25;100.00;52692.63;2031152;29;33672;-64
2024/01/14 03:06:00;;;;;;;9.40;0.50;;;;;;;-146.25;100.00;52706.81;2031237;29;32661;-65
2024/01/14 03:07:03;;;;;;;12.90;1.10;;;;;;;-146.25;100.00;52729.13;2030923;29;33312;-66
2024/01/14 03:08:05;;;;;;;15.13;0.98;;;;;;;-146.25;100.00;52716.97;2031485;29;36249;-64
2024/01/14 03:09:10;;;;;;;12.50;0.88;;;;;;;-146.25;100.00;52718.97;2030000;29;35861;-65
2024/01/14 03:10:12;;;;;;;12.18;0.80;;;;;;;-146.25;100.00;52660.19;2031555;29;20040;-66
2024/01/14 03:11:17;;;;;;;10.95;1.00;;;;;;;-146.25;100.00;52680.47;2031984;29;20045;-65
2024/01/14 03:12:18;;;;;;;15.00;0.50;;;;;;;-146.25;100.00;52692.63;2031428;29;32706;-64
2024/01/14 03:13:20;;;;;;;16.58;0.80;;;;;;;-146.25;100.00;52686.53;2031582;29;20048;-62
2024/01/14 03:14:22;;;;;;;13.30;0.43;;;;;;;-146.25;100.00;52692.63;2031451;29;36435;-65
2024/01/14 03:15:24;;;;;;;12.73;0.80;;;;;;;-146.25;100.00;52712.91;2030858;29;34546;-64
2024/01/14 03:16:25;;;;;;;19.08;1.10;;;;;;;-146.25;100.00;52678.44;2031494;29;35672;-65
2024/01/14 03:17:27;;;;;;;14.52;0.80;;;;;;;-146.25;100.00;52690.59;2030980;29;35682;-64
2024/01/14 03:18:29;;;;;;;21.05;0.80;;;;;;;-146.25;100.00;52686.53;2031624;29;33109;-65
2024/01/14 03:19:31;;;;;;;16.05;1.10;;;;;;;-146.25;100.00;52708.84;2030339;29;31276;-65
2024/01/14 03:20:34;;;;;;;17.88;0.88;;;;;;;-146.25;100.00;52682.47;2030992;29;30129;-65
2024/01/14 03:21:35;;;;;;;15.63;0.60;;;;;;;-146.25;100.00;52680.47;2031569;29;20049;-64
2024/01/14 03:22:37;;;;;;;14.40;0.82;;;;;;;-146.25;100.00;52712.91;2030921;29;33203;-65
2024/01/14 03:23:39;;;;;;;13.85;1.33;;;;;;;-146.25;100.00;52692.63;2030279;29;35218;-63
2024/01/14 03:24:41;;;;;;;14.23;0.65;;;;;;;-146.25;100.00;52706.81;2031403;29;34328;-65
2024/01/14 03:25:43;;;;;;;17.23;0.90;;;;;;;-146.25;100.00;52672.34;2030895;29;35619;-65
2024/01/14 03:26:46;;;;;;;12.98;0.82;;;;;;;-146.25;100.00;52698.72;2031738;29;34615;-65
2024/01/14 03:27:47;;;;;;;18.35;0.70;;;;;;;-146.25;100.00;52712.91;2032570;29;20945;-65
2024/01/14 03:28:49;;;;;;;12.77;1.00;;;;;;;-146.25;100.00;52692.63;2033431;29;20044;-65
2024/01/14 03:29:51;;;;;;;14.15;0.82;;;;;;;-146.25;100.00;52700.72;2032017;29;37833;-65
2024/01/14 03:30:55;;;;;;;15.02;0.98;;;;;;;-146.25;100.00;52706.81;2032850;29;31268;-67
2024/01/14 03:31:58;;;;;;;17.88;1.10;;;;;;;-146.25;100.00;52704.78;2032525;29;20049;-65
2024/01/14 03:32:59;;;;;;;18.05;1.20;;;;;;;-146.25;100.00;52692.63;2032979;29;34608;-63
2024/01/14 03:34:01;;;;;;;10.57;1.00;;;;;;;-146.25;100.00;52708.84;2033006;29;20048;-65
2024/01/14 03:35:04;;;;;;;16.40;1.10;;;;;;;-146.25;100.00;52704.78;2032455;29;38203;-64
2024/01/14 03:36:11;;;;;;;16.40;1.00;;;;;;;-146.25;100.00;52716.97;2032804;29;32385;-65
2024/01/14 03:37:13;;;;;;;15.93;0.90;;;;;;;-146.25;100.00;52723.03;2032836;29;33846;-66
2024/01/14 03:38:17;;;;;;;22.23;1.77;;;;;;;-146.25;100.00;52678.44;2032500;29;37171;-65
2024/01/14 03:39:18;;;;;;;13.35;0.90;;;;;;;-146.25;100.00;52725.06;2033372;29;20154;-63
2024/01/14 03:40:20;;;;;;;12.52;0.80;;;;;;;-146.25;100.00;52688.56;2023656;29;37968;-64
2024/01/14 03:41:24;;;;;;;15.30;0.90;;;;;;;-146.25;100.00;52688.56;2024870;29;20124;-65
2024/01/14 03:42:26;;;;;;;15.18;0.80;;;;;;;-146.25;100.00;52700.72;2032166;29;35142;-67
2024/01/14 03:43:28;;;;;;;14.35;0.93;;;;;;;-146.25;100.00;52690.59;2032678;29;35057;-66
2024/01/14 03:44:30;;;;;;;13.60;0.70;;;;;;;-146.25;100.00;52650.03;2033111;29;20045;-65
2024/01/14 03:45:31;;;;;;;13.52;0.57;;;;;;;-146.25;100.00;52712.91;2032405;29;36749;-65
2024/01/14 03:46:33;;;;;;;18.30;1.10;;;;;;;-146.25;100.00;52643.97;2031919;29;31964;-65
2024/01/14 03:47:35;;;;;;;16.30;0.98;;;;;;;-146.25;100.00;52702.75;2033489;29;20056;-65
2024/01/14 03:48:38;;;;;;;18.83;1.38;;;;;;;-146.25;100.00;52694.66;2032013;29;37671;-65
2024/01/14 03:49:40;;;;;;;14.20;0.88;;;;;;;-146.25;100.00;52696.69;2032477;29;33311;-64
2024/01/14 03:50:42;;;;;;;16.95;1.02;;;;;;;-146.25;100.00;52696.69;2031806;29;37165;-65
2024/01/14 03:51:44;;;;;;;13.07;0.98;;;;;;;-146.25;100.00;52704.78;2032816;29;35856;-64
2024/01/14 03:52:45;;;;;;;11.85;1.45;;;;;;;-146.25;100.00;52684.50;2032401;29;32880;-65
2024/01/14 03:53:47;;;;;;;12.05;1.20;;;;;;;-146.25;100.00;52712.91;2033244;29;20044;-65
2024/01/14 03:54:50;;;;;;;16.67;1.08;;;;;;;-146.25;100.00;52702.75;2032259;29;33997;-62
2024/01/14 03:55:52;;;;;;;12.18;0.98;;;;;;;-146.25;100.00;52721.00;2032757;29;32327;-65
2024/01/14 03:56:54;;;;;;;13.85;0.60;;;;;;;-146.25;100.00;52725.06;2032845;29;20067;-65
2024/01/14 03:57:59;;;;;;;10.07;0.88;;;;;;;-146.25;100.00;52690.59;2033412;29;20881;-64
2024/01/14 03:59:01;;;;;;;17.70;1.02;;;;;;;-146.25;100.00;52729.13;2032611;29;31093;-65
2024/01/14 04:00:03;;;;;;;13.85;0.70;;;;;;;-146.25;100.00;52700.72;2032484;29;33158;-65
2024/01/14 04:01:06;;;;;;;10.88;0.73;;;;;;;-146.25;100.00;52712.91;2032689;29;20048;-66
2024/01/14 04:02:10;;;;;;;15.90;1.25;;;;;;;-146.25;100.00;52678.44;2033101;29;20120;-65
2024/01/14 04:03:11;;;;;;;16.35;0.95;;;;;;;-146.25;100.00;52729.13;2023560;29;36228;-66
2024/01/14 04:04:13;;;;;;;14.90;0.93;;;;;;;-146.25;100.00;52668.28;2024202;29;32862;-65
2024/01/14 04:05:16;;;;;;;15.07;0.85;;;;;;;-146.25;100.00;52684.50;2032848;29;20131;-65
2024/01/14 04:06:22;;;;;;;20.88;1.15;;;;;;;-146.25;100.00;52684.50;2032224;29;36324;-65
2024/01/14 04:07:24;;;;;;;19.60;1.02;;;;;;;-146.25;100.00;52721.00;2032398;29;33092;-64
2024/01/14 04:08:28;;;;;;;16.85;1.45;;;;;;;-146.25;100.00;52704.78;2033245;29;20044;-63
2024/01/14 04:09:30;;;;;;;17.05;1.10;;;;;;;-146.25;100.00;52714.94;2031920;29;36593;-66
2024/01/14 04:10:31;;;;;;;14.45;1.30;;;;;;;-146.25;100.00;52692.63;2033420;29;20039;-65
2024/01/14 04:11:33;;;;;;;11.90;0.75;;;;;;;-146.25;100.00;52731.16;2032293;29;29484;-67
2024/01/14 04:12:39;;;;;;;11.13;1.30;;;;;;;-146.25;100.00;52680.47;2032695;29;31695;-66
2024/01/14 04:13:41;;;;;;;18.75;1.17;;;;;;;-146.25;100.00;52682.47;2031685;29;35066;-65
2024/01/14 04:14:44;;;;;;;17.63;0.90;;;;;;;-146.25;100.00;52694.66;2031910;29;37058;-66
2024/01/14 04:15:46;;;;;;;18.88;1.10;;;;;;;-146.25;100.00;52700.72;2031793;29;28809;-65
2024/01/14 04:16:48;;;;;;;23.10;1.42;;;;;;;-146.25;100.00;52674.38;2032262;29;20910;-65
2024/01/14 04:17:49;;;;;;;11.30;1.05;;;;;;;-146.25;100.00;52686.53;2032347;29;32161;-65
2024/01/14 04:18:51;;;;;;;14.20;0.88;;;;;;;-146.25;100.00;52749.41;2032652;29;34716;-65
2024/01/14 04:19:53;;;;;;;18.45;0.85;;;;;;;-146.25;100.00;52684.50;2031739;29;34327;-64
2024/01/14 04:20:56;;;;;;;17.77;1.13;;;;;;;-146.25;100.00;52674.38;2032864;29;31437;-65
2024/01/14 04:21:57;;;;;;;18.55;1.20;;;;;;;-146.25;100.00;52733.19;2032220;29;32754;-65
2024/01/14 04:22:59;;;;;;;16.05;1.25;;;;;;;-146.25;100.00;52710.88;2033039;29;20043;-64
2024/01/14 04:24:04;;;;;;;10.68;1.10;;;;;;;-146.25;100.00;52727.09;2031295;29;35079;-62
2024/01/14 04:25:06;;;;;;;17.45;1.17;;;;;;;-146.25;100.00;52723.03;2032885;29;20116;-65
2024/01/14 04:26:10;;;;;;;12.45;1.13;;;;;;;-146.25;100.00;52692.63;2032708;29;20151;-65
2024/01/14 04:27:12;;;;;;;20.30;1.10;;;;;;;-146.25;100.00;52692.63;2032752;29;31347;-65
2024/01/14 04:28:14;;;;;;;17.27;0.88;;;;;;;-146.25;100.00;52684.50;2031778;29;33002;-66
2024/01/14 04:29:15;;;;;;;19.13;1.00;;;;;;;-146.25;100.00;52704.78;2032567;29;29475;-66
2024/01/14 04:30:17;;;;;;;18.98;1.83;;;;;;;-146.25;100.00;52714.94;2031338;29;34600;-65
2024/01/14 04:31:20;;;;;;;15.40;1.27;;;;;;;-146.25;100.00;52692.63;2032609;29;31099;-63
2024/01/14 04:32:22;;;;;;;16.73;1.55;;;;;;;-146.25;100.00;52698.72;2031809;29;35082;-66
2024/01/14 04:33:23;;;;;;;13.57;0.93;;;;;;;-146.25;100.00;52674.38;2032198;29;31505;-63
2024/01/14 04:34:25;;;;;;;18.00;1.35;;;;;;;-146.25;100.00;52708.84;2032826;29;20037;-65
2024/01/14 04:35:27;;;;;;;19.27;1.45;;;;;;;-146.25;100.00;52698.72;2032020;29;35852;-65
2024/01/14 04:36:29;;;;;;;19.02;1.75;;;;;;;-146.25;100.00;52716.97;2031918;29;35791;-65
2024/01/14 04:37:31;;;;;;;17.77;1.20;;;;;;;-146.25;100.00;52688.56;2024061;29;31387;-65
2024/01/14 04:38:33;;;;;;;16.13;0.80;;;;;;;-146.25;100.00;52688.56;2022637;29;36933;-66
2024/01/14 04:39:35;;;;;;;20.20;1.70;;;;;;;-146.25;100.00;52684.50;2032117;29;32827;-65
2024/01/14 04:40:37;;;;;;;17.60;1.05;;;;;;;-146.25;100.00;52686.53;2032190;29;33895;-65
2024/01/14 04:41:39;;;;;;;15.65;1.10;;;;;;;-146.25;100.00;52682.47;2032134;29;38489;-65
2024/01/14 04:42:41;;;;;;;12.30;0.98;;;;;;;-146.25;100.00;52725.06;2032626;29;29350;-65